sensor_id;sensor_type;location;lat;lon;timestamp;P1;P2;P0
77411;PMS7003;66484;49.968;19.140;2023-08-07T00:01:21;5.00;3.50;3.00
77411;PMS7003;66484;49.968;19.140;2023-08-07T00:03:48;4.25;4.25;3.00
77411;PMS7003;66484;49.968;19.140;2023-08-07T00:06:15;6.25;5.25;4.00
77411;PMS7003;66484;49.968;19.140;2023-08-07T00:08:42;6.25;5.25;4.25
77411;PMS7003;66484;49.968;19.140;2023-08-07T00:11:10;3.25;3.25;2.25
77411;PMS7003;66484;49.968;19.140;2023-08-07T00:13:37;4.00;4.00;3.00
77411;PMS7003;66484;49.968;19.140;2023-08-07T00:16:04;2.00;2.00;2.00
77411;PMS7003;66484;49.968;19.140;2023-08-07T00:18:32;3.50;3.50;2.75
77411;PMS7003;66484;49.968;19.140;2023-08-07T00:20:59;3.50;3.00;3.00
77411;PMS7003;66484;49.968;19.140;2023-08-07T00:23:26;5.75;5.00;4.50
77411;PMS7003;66484;49.968;19.140;2023-08-07T00:25:54;3.00;3.00;2.00
77411;PMS7003;66484;49.968;19.140;2023-08-07T00:28:21;6.00;5.00;5.00
77411;PMS7003;66484;49.968;19.140;2023-08-07T00:30:48;3.00;3.00;3.00
77411;PMS7003;66484;49.968;19.140;2023-08-07T00:33:15;6.50;6.00;4.00
77411;PMS7003;66484;49.968;19.140;2023-08-07T00:35:42;7.50;7.00;5.50
77411;PMS7003;66484;49.968;19.140;2023-08-07T00:38:10;5.25;5.25;4.00
77411;PMS7003;66484;49.968;19.140;2023-08-07T00:40:38;5.00;5.00;4.50
77411;PMS7003;66484;49.968;19.140;2023-08-07T00:43:05;3.50;3.50;3.00
77411;PMS7003;66484;49.968;19.140;2023-08-07T00:45:34;3.25;3.25;2.50
77411;PMS7003;66484;49.968;19.140;2023-08-07T00:48:03;6.25;4.00;4.00
77411;PMS7003;66484;49.968;19.140;2023-08-07T00:50:30;5.00;3.75;3.75
77411;PMS7003;66484;49.968;19.140;2023-08-07T00:53:12;6.50;5.50;3.75
77411;PMS7003;66484;49.968;19.140;2023-08-07T00:55:41;4.75;4.75;3.75
77411;PMS7003;66484;49.968;19.140;2023-08-07T00:58:08;3.25;3.25;3.00
77411;PMS7003;66484;49.968;19.140;2023-08-07T01:00:35;4.00;4.00;3.00
77411;PMS7003;66484;49.968;19.140;2023-08-07T01:03:04;4.00;4.00;4.00
77411;PMS7003;66484;49.968;19.140;2023-08-07T01:05:33;2.50;2.00;1.75
77411;PMS7003;66484;49.968;19.140;2023-08-07T01:08:00;3.50;2.50;1.50
77411;PMS7003;66484;49.968;19.140;2023-08-07T01:10:37;2.50;2.50;2.00
77411;PMS7003;66484;49.968;19.140;2023-08-07T01:13:10;1.25;1.25;1.25
77411;PMS7003;66484;49.968;19.140;2023-08-07T01:15:41;3.00;3.00;3.00
77411;PMS7003;66484;49.968;19.140;2023-08-07T01:18:09;2.75;2.75;2.00
77411;PMS7003;66484;49.968;19.140;2023-08-07T01:20:36;3.25;3.25;3.00
77411;PMS7003;66484;49.968;19.140;2023-08-07T01:23:04;4.25;2.25;1.25
77411;PMS7003;66484;49.968;19.140;2023-08-07T01:25:31;3.75;3.00;3.00
77411;PMS7003;66484;49.968;19.140;2023-08-07T01:30:53;5.00;5.00;3.00
77411;PMS7003;66484;49.968;19.140;2023-08-07T01:33:27;3.00;3.00;2.00
77411;PMS7003;66484;49.968;19.140;2023-08-07T01:35:57;2.00;1.00;1.00
77411;PMS7003;66484;49.968;19.140;2023-08-07T01:38:25;2.25;2.00;1.00
77411;PMS7003;66484;49.968;19.140;2023-08-07T01:40:54;2.75;2.75;2.00
77411;PMS7003;66484;49.968;19.140;2023-08-07T01:43:21;3.00;2.00;2.00
77411;PMS7003;66484;49.968;19.140;2023-08-07T01:45:48;1.00;1.00;1.00
77411;PMS7003;66484;49.968;19.140;2023-08-07T01:48:15;3.00;2.25;2.25
77411;PMS7003;66484;49.968;19.140;2023-08-07T01:50:43;2.00;2.00;2.00
77411;PMS7003;66484;49.968;19.140;2023-08-07T01:53:10;2.50;2.50;1.50
77411;PMS7003;66484;49.968;19.140;2023-08-07T01:55:37;3.25;3.25;2.50
77411;PMS7003;66484;49.968;19.140;2023-08-07T01:58:05;2.25;2.25;2.00
77411;PMS7003;66484;49.968;19.140;2023-08-07T02:00:33;1.75;1.75;1.75
77411;PMS7003;66484;49.968;19.140;2023-08-07T02:03:00;2.00;2.00;2.00
77411;PMS7003;66484;49.968;19.140;2023-08-07T02:05:27;2.00;2.00;2.00
77411;PMS7003;66484;49.968;19.140;2023-08-07T02:07:55;2.50;2.50;2.50
77411;PMS7003;66484;49.968;19.140;2023-08-07T02:10:23;2.50;2.50;2.25
77411;PMS7003;66484;49.968;19.140;2023-08-07T02:12:50;2.00;2.00;2.00
77411;PMS7003;66484;49.968;19.140;2023-08-07T02:15:18;1.75;1.75;1.75
77411;PMS7003;66484;49.968;19.140;2023-08-07T02:17:45;2.00;2.00;2.00
77411;PMS7003;66484;49.968;19.140;2023-08-07T02:20:12;1.75;1.00;1.00
77411;PMS7003;66484;49.968;19.140;2023-08-07T02:22:39;1.50;1.50;1.00
77411;PMS7003;66484;49.968;19.140;2023-08-07T02:25:07;5.00;3.25;2.00
77411;PMS7003;66484;49.968;19.140;2023-08-07T02:27:34;3.00;3.00;2.00
77411;PMS7003;66484;49.968;19.140;2023-08-07T02:30:01;4.00;2.75;2.00
77411;PMS7003;66484;49.968;19.140;2023-08-07T02:32:30;2.00;2.00;1.75
77411;PMS7003;66484;49.968;19.140;2023-08-07T02:34:57;2.00;2.00;2.00
77411;PMS7003;66484;49.968;19.140;2023-08-07T02:37:24;3.00;2.00;1.00
77411;PMS7003;66484;49.968;19.140;2023-08-07T02:39:52;2.00;2.00;2.00
77411;PMS7003;66484;49.968;19.140;2023-08-07T02:42:20;2.25;2.25;2.25
77411;PMS7003;66484;49.968;19.140;2023-08-07T02:44:47;1.75;1.75;1.25
77411;PMS7003;66484;49.968;19.140;2023-08-07T02:47:14;3.50;1.75;1.00
77411;PMS7003;66484;49.968;19.140;2023-08-07T02:49:42;1.00;1.00;0.75
77411;PMS7003;66484;49.968;19.140;2023-08-07T02:52:09;1.50;1.50;1.00
77411;PMS7003;66484;49.968;19.140;2023-08-07T02:54:36;1.00;1.00;1.00
77411;PMS7003;66484;49.968;19.140;2023-08-07T02:57:03;2.00;2.00;1.00
77411;PMS7003;66484;49.968;19.140;2023-08-07T02:59:30;3.00;1.75;1.00
77411;PMS7003;66484;49.968;19.140;2023-08-07T03:01:57;1.00;1.00;1.00
77411;PMS7003;66484;49.968;19.140;2023-08-07T03:04:26;1.25;1.25;0.75
77411;PMS7003;66484;49.968;19.140;2023-08-07T03:06:53;1.00;1.00;0.00
77411;PMS7003;66484;49.968;19.140;2023-08-07T03:09:22;1.00;1.00;1.00
77411;PMS7003;66484;49.968;19.140;2023-08-07T03:11:48;1.00;1.00;1.00
77411;PMS7003;66484;49.968;19.140;2023-08-07T03:14:16;0.00;0.00;0.00
77411;PMS7003;66484;49.968;19.140;2023-08-07T03:16:44;0.00;0.00;0.00
77411;PMS7003;66484;49.968;19.140;2023-08-07T03:19:11;1.00;1.00;1.00
77411;PMS7003;66484;49.968;19.140;2023-08-07T03:21:39;0.75;0.75;0.75
77411;PMS7003;66484;49.968;19.140;2023-08-07T03:24:06;1.00;1.00;1.00
77411;PMS7003;66484;49.968;19.140;2023-08-07T03:26:36;1.00;1.00;0.75
77411;PMS7003;66484;49.968;19.140;2023-08-07T03:29:03;0.75;0.75;0.75
77411;PMS7003;66484;49.968;19.140;2023-08-07T03:31:31;0.50;0.50;0.00
77411;PMS7003;66484;49.968;19.140;2023-08-07T03:34:00;0.25;0.25;0.25
77411;PMS7003;66484;49.968;19.140;2023-08-07T03:36:27;1.00;1.00;1.00
77411;PMS7003;66484;49.968;19.140;2023-08-07T03:38:55;0.00;0.00;0.00
77411;PMS7003;66484;49.968;19.140;2023-08-07T03:41:22;0.00;0.00;0.00
77411;PMS7003;66484;49.968;19.140;2023-08-07T03:43:49;0.00;0.00;0.00
77411;PMS7003;66484;49.968;19.140;2023-08-07T03:46:16;1.00;0.00;0.00
77411;PMS7003;66484;49.968;19.140;2023-08-07T03:48:44;1.00;1.00;1.00
77411;PMS7003;66484;49.968;19.140;2023-08-07T03:51:11;0.00;0.00;0.00
77411;PMS7003;66484;49.968;19.140;2023-08-07T03:53:38;0.50;0.50;0.00
77411;PMS7003;66484;49.968;19.140;2023-08-07T03:56:05;1.00;1.00;0.00
77411;PMS7003;66484;49.968;19.140;2023-08-07T03:58:33;0.00;0.00;0.00
77411;PMS7003;66484;49.968;19.140;2023-08-07T04:01:00;0.25;0.00;0.00
77411;PMS7003;66484;49.968;19.140;2023-08-07T04:03:27;0.00;0.00;0.00
77411;PMS7003;66484;49.968;19.140;2023-08-07T04:05:55;0.00;0.00;0.00
77411;PMS7003;66484;49.968;19.140;2023-08-07T04:08:22;0.00;0.00;0.00
77411;PMS7003;66484;49.968;19.140;2023-08-07T04:10:59;0.00;0.00;0.00
77411;PMS7003;66484;49.968;19.140;2023-08-07T04:13:27;0.00;0.00;0.00
77411;PMS7003;66484;49.968;19.140;2023-08-07T04:15:54;0.00;0.00;0.00
77411;PMS7003;66484;49.968;19.140;2023-08-07T04:18:22;0.00;0.00;0.00
77411;PMS7003;66484;49.968;19.140;2023-08-07T04:20:52;0.75;0.00;0.00
77411;PMS7003;66484;49.968;19.140;2023-08-07T04:23:21;0.00;0.00;0.00
77411;PMS7003;66484;49.968;19.140;2023-08-07T04:25:48;0.00;0.00;0.00
77411;PMS7003;66484;49.968;19.140;2023-08-07T04:28:15;0.00;0.00;0.00
77411;PMS7003;66484;49.968;19.140;2023-08-07T04:30:43;0.75;0.75;0.50
77411;PMS7003;66484;49.968;19.140;2023-08-07T04:33:10;0.00;0.00;0.00
77411;PMS7003;66484;49.968;19.140;2023-08-07T04:35:37;0.00;0.00;0.00
77411;PMS7003;66484;49.968;19.140;2023-08-07T04:38:06;0.00;0.00;0.00
77411;PMS7003;66484;49.968;19.140;2023-08-07T04:40:33;0.00;0.00;0.00
77411;PMS7003;66484;49.968;19.140;2023-08-07T04:43:01;1.00;0.00;0.00
77411;PMS7003;66484;49.968;19.140;2023-08-07T04:45:28;0.00;0.00;0.00
77411;PMS7003;66484;49.968;19.140;2023-08-07T04:47:56;0.00;0.00;0.00
77411;PMS7003;66484;49.968;19.140;2023-08-07T04:50:25;0.00;0.00;0.00
77411;PMS7003;66484;49.968;19.140;2023-08-07T04:52:52;0.00;0.00;0.00
77411;PMS7003;66484;49.968;19.140;2023-08-07T04:55:19;1.00;1.00;0.00
77411;PMS7003;66484;49.968;19.140;2023-08-07T04:57:47;0.00;0.00;0.00
77411;PMS7003;66484;49.968;19.140;2023-08-07T05:00:14;0.00;0.00;0.00
77411;PMS7003;66484;49.968;19.140;2023-08-07T05:02:41;1.25;0.00;0.00
77411;PMS7003;66484;49.968;19.140;2023-08-07T05:05:09;0.00;0.00;0.00
77411;PMS7003;66484;49.968;19.140;2023-08-07T05:07:36;0.00;0.00;0.00
77411;PMS7003;66484;49.968;19.140;2023-08-07T05:10:04;0.00;0.00;0.00
77411;PMS7003;66484;49.968;19.140;2023-08-07T05:12:31;0.00;0.00;0.00
77411;PMS7003;66484;49.968;19.140;2023-08-07T05:14:58;0.00;0.00;0.00
77411;PMS7003;66484;49.968;19.140;2023-08-07T05:17:26;0.00;0.00;0.00
77411;PMS7003;66484;49.968;19.140;2023-08-07T05:19:53;0.00;0.00;0.00
77411;PMS7003;66484;49.968;19.140;2023-08-07T05:22:20;0.25;0.25;0.00
77411;PMS7003;66484;49.968;19.140;2023-08-07T05:24:47;0.00;0.00;0.00
77411;PMS7003;66484;49.968;19.140;2023-08-07T05:27:15;0.00;0.00;0.00
77411;PMS7003;66484;49.968;19.140;2023-08-07T05:29:42;0.00;0.00;0.00
77411;PMS7003;66484;49.968;19.140;2023-08-07T05:32:13;0.00;0.00;0.00
77411;PMS7003;66484;49.968;19.140;2023-08-07T05:34:41;0.00;0.00;0.00
77411;PMS7003;66484;49.968;19.140;2023-08-07T05:37:08;0.00;0.00;0.00
77411;PMS7003;66484;49.968;19.140;2023-08-07T05:39:36;0.00;0.00;0.00
77411;PMS7003;66484;49.968;19.140;2023-08-07T05:42:03;0.75;0.00;0.00
77411;PMS7003;66484;49.968;19.140;2023-08-07T05:44:31;0.00;0.00;0.00
77411;PMS7003;66484;49.968;19.140;2023-08-07T05:46:58;1.00;1.00;0.00
77411;PMS7003;66484;49.968;19.140;2023-08-07T05:49:25;0.00;0.00;0.00
77411;PMS7003;66484;49.968;19.140;2023-08-07T05:51:53;0.00;0.00;0.00
77411;PMS7003;66484;49.968;19.140;2023-08-07T05:54:21;0.00;0.00;0.00
77411;PMS7003;66484;49.968;19.140;2023-08-07T05:56:48;0.00;0.00;0.00
77411;PMS7003;66484;49.968;19.140;2023-08-07T05:59:15;0.00;0.00;0.00
77411;PMS7003;66484;49.968;19.140;2023-08-07T06:01:43;0.00;0.00;0.00
77411;PMS7003;66484;49.968;19.140;2023-08-07T06:04:10;0.00;0.00;0.00
77411;PMS7003;66484;49.968;19.140;2023-08-07T06:06:37;0.00;0.00;0.00
77411;PMS7003;66484;49.968;19.140;2023-08-07T06:09:06;0.00;0.00;0.00
77411;PMS7003;66484;49.968;19.140;2023-08-07T06:11:34;0.00;0.00;0.00
77411;PMS7003;66484;49.968;19.140;2023-08-07T06:14:01;0.00;0.00;0.00
77411;PMS7003;66484;49.968;19.140;2023-08-07T06:16:28;0.00;0.00;0.00
77411;PMS7003;66484;49.968;19.140;2023-08-07T06:18:56;0.00;0.00;0.00
77411;PMS7003;66484;49.968;19.140;2023-08-07T06:21:24;0.00;0.00;0.00
77411;PMS7003;66484;49.968;19.140;2023-08-07T06:23:51;0.00;0.00;0.00
77411;PMS7003;66484;49.968;19.140;2023-08-07T06:26:18;0.00;0.00;0.00
77411;PMS7003;66484;49.968;19.140;2023-08-07T06:28:45;0.00;0.00;0.00
77411;PMS7003;66484;49.968;19.140;2023-08-07T06:31:12;0.00;0.00;0.00
77411;PMS7003;66484;49.968;19.140;2023-08-07T06:33:41;0.00;0.00;0.00
77411;PMS7003;66484;49.968;19.140;2023-08-07T06:36:08;0.00;0.00;0.00
77411;PMS7003;66484;49.968;19.140;2023-08-07T06:38:35;0.00;0.00;0.00
77411;PMS7003;66484;49.968;19.140;2023-08-07T06:41:03;0.00;0.00;0.00
77411;PMS7003;66484;49.968;19.140;2023-08-07T06:43:30;0.00;0.00;0.00
77411;PMS7003;66484;49.968;19.140;2023-08-07T06:45:58;0.00;0.00;0.00
77411;PMS7003;66484;49.968;19.140;2023-08-07T06:48:25;0.00;0.00;0.00
77411;PMS7003;66484;49.968;19.140;2023-08-07T06:50:53;0.00;0.00;0.00
77411;PMS7003;66484;49.968;19.140;2023-08-07T06:53:20;0.00;0.00;0.00
77411;PMS7003;66484;49.968;19.140;2023-08-07T06:55:47;0.00;0.00;0.00
77411;PMS7003;66484;49.968;19.140;2023-08-07T06:58:14;0.00;0.00;0.00
77411;PMS7003;66484;49.968;19.140;2023-08-07T07:00:43;0.00;0.00;0.00
77411;PMS7003;66484;49.968;19.140;2023-08-07T07:03:10;2.00;0.00;0.00
77411;PMS7003;66484;49.968;19.140;2023-08-07T07:05:37;0.00;0.00;0.00
77411;PMS7003;66484;49.968;19.140;2023-08-07T07:08:04;0.00;0.00;0.00
77411;PMS7003;66484;49.968;19.140;2023-08-07T07:10:33;0.00;0.00;0.00
77411;PMS7003;66484;49.968;19.140;2023-08-07T07:13:00;0.00;0.00;0.00
77411;PMS7003;66484;49.968;19.140;2023-08-07T07:15:28;0.00;0.00;0.00
77411;PMS7003;66484;49.968;19.140;2023-08-07T07:17:55;0.00;0.00;0.00
77411;PMS7003;66484;49.968;19.140;2023-08-07T07:20:22;0.00;0.00;0.00
77411;PMS7003;66484;49.968;19.140;2023-08-07T07:22:49;0.00;0.00;0.00
77411;PMS7003;66484;49.968;19.140;2023-08-07T07:25:17;0.00;0.00;0.00
77411;PMS7003;66484;49.968;19.140;2023-08-07T07:27:44;0.00;0.00;0.00
77411;PMS7003;66484;49.968;19.140;2023-08-07T07:30:11;0.00;0.00;0.00
77411;PMS7003;66484;49.968;19.140;2023-08-07T07:32:38;0.00;0.00;0.00
77411;PMS7003;66484;49.968;19.140;2023-08-07T07:35:06;0.00;0.00;0.00
77411;PMS7003;66484;49.968;19.140;2023-08-07T07:37:33;0.00;0.00;0.00
77411;PMS7003;66484;49.968;19.140;2023-08-07T07:40:00;0.00;0.00;0.00
77411;PMS7003;66484;49.968;19.140;2023-08-07T07:42:27;0.25;0.00;0.00
77411;PMS7003;66484;49.968;19.140;2023-08-07T07:44:55;0.00;0.00;0.00
77411;PMS7003;66484;49.968;19.140;2023-08-07T07:47:23;1.25;0.00;0.00
77411;PMS7003;66484;49.968;19.140;2023-08-07T07:50:03;0.00;0.00;0.00
77411;PMS7003;66484;49.968;19.140;2023-08-07T07:52:30;0.00;0.00;0.00
77411;PMS7003;66484;49.968;19.140;2023-08-07T07:54:57;0.00;0.00;0.00
77411;PMS7003;66484;49.968;19.140;2023-08-07T07:57:24;0.00;0.00;0.00
77411;PMS7003;66484;49.968;19.140;2023-08-07T07:59:53;0.75;0.00;0.00
77411;PMS7003;66484;49.968;19.140;2023-08-07T08:02:20;0.00;0.00;0.00
77411;PMS7003;66484;49.968;19.140;2023-08-07T08:04:48;0.00;0.00;0.00
77411;PMS7003;66484;49.968;19.140;2023-08-07T08:07:15;0.75;0.00;0.00
77411;PMS7003;66484;49.968;19.140;2023-08-07T08:09:42;0.00;0.00;0.00
77411;PMS7003;66484;49.968;19.140;2023-08-07T08:12:09;0.00;0.00;0.00
77411;PMS7003;66484;49.968;19.140;2023-08-07T08:14:37;0.00;0.00;0.00
77411;PMS7003;66484;49.968;19.140;2023-08-07T08:17:22;0.00;0.00;0.00
77411;PMS7003;66484;49.968;19.140;2023-08-07T08:19:50;0.00;0.00;0.00
77411;PMS7003;66484;49.968;19.140;2023-08-07T08:22:18;1.00;0.00;0.00
77411;PMS7003;66484;49.968;19.140;2023-08-07T08:24:46;0.00;0.00;0.00
77411;PMS7003;66484;49.968;19.140;2023-08-07T08:27:14;0.00;0.00;0.00
77411;PMS7003;66484;49.968;19.140;2023-08-07T08:29:42;0.00;0.00;0.00
77411;PMS7003;66484;49.968;19.140;2023-08-07T08:32:09;1.00;0.00;0.00
77411;PMS7003;66484;49.968;19.140;2023-08-07T08:34:38;0.00;0.00;0.00
77411;PMS7003;66484;49.968;19.140;2023-08-07T08:37:05;0.00;0.00;0.00
77411;PMS7003;66484;49.968;19.140;2023-08-07T08:39:34;0.00;0.00;0.00
77411;PMS7003;66484;49.968;19.140;2023-08-07T08:42:01;0.25;0.25;0.00
77411;PMS7003;66484;49.968;19.140;2023-08-07T08:44:29;0.00;0.00;0.00
77411;PMS7003;66484;49.968;19.140;2023-08-07T08:46:56;0.00;0.00;0.00
77411;PMS7003;66484;49.968;19.140;2023-08-07T08:49:30;1.00;0.00;0.00
77411;PMS7003;66484;49.968;19.140;2023-08-07T08:51:59;0.00;0.00;0.00
77411;PMS7003;66484;49.968;19.140;2023-08-07T08:54:27;0.00;0.00;0.00
77411;PMS7003;66484;49.968;19.140;2023-08-07T08:56:55;0.00;0.00;0.00
77411;PMS7003;66484;49.968;19.140;2023-08-07T08:59:23;0.00;0.00;0.00
77411;PMS7003;66484;49.968;19.140;2023-08-07T09:01:50;0.00;0.00;0.00
77411;PMS7003;66484;49.968;19.140;2023-08-07T09:04:18;0.00;0.00;0.00
77411;PMS7003;66484;49.968;19.140;2023-08-07T09:06:45;0.00;0.00;0.00
77411;PMS7003;66484;49.968;19.140;2023-08-07T09:09:14;0.00;0.00;0.00
77411;PMS7003;66484;49.968;19.140;2023-08-07T09:11:41;0.00;0.00;0.00
77411;PMS7003;66484;49.968;19.140;2023-08-07T09:14:15;0.00;0.00;0.00
77411;PMS7003;66484;49.968;19.140;2023-08-07T09:16:45;0.00;0.00;0.00
77411;PMS7003;66484;49.968;19.140;2023-08-07T09:19:14;1.00;0.00;0.00
77411;PMS7003;66484;49.968;19.140;2023-08-07T09:21:42;1.00;0.00;0.00
77411;PMS7003;66484;49.968;19.140;2023-08-07T09:24:13;1.00;0.00;0.00
77411;PMS7003;66484;49.968;19.140;2023-08-07T09:26:41;0.00;0.00;0.00
77411;PMS7003;66484;49.968;19.140;2023-08-07T09:29:10;0.00;0.00;0.00
77411;PMS7003;66484;49.968;19.140;2023-08-07T09:31:37;0.00;0.00;0.00
77411;PMS7003;66484;49.968;19.140;2023-08-07T09:34:05;0.00;0.00;0.00
77411;PMS7003;66484;49.968;19.140;2023-08-07T09:36:33;0.00;0.00;0.00
77411;PMS7003;66484;49.968;19.140;2023-08-07T09:39:01;0.75;0.00;0.00
77411;PMS7003;66484;49.968;19.140;2023-08-07T09:41:29;0.00;0.00;0.00
77411;PMS7003;66484;49.968;19.140;2023-08-07T09:43:56;0.00;0.00;0.00
77411;PMS7003;66484;49.968;19.140;2023-08-07T09:46:27;2.00;0.00;0.00
77411;PMS7003;66484;49.968;19.140;2023-08-07T09:48:57;0.00;0.00;0.00
77411;PMS7003;66484;49.968;19.140;2023-08-07T09:51:24;0.00;0.00;0.00
77411;PMS7003;66484;49.968;19.140;2023-08-07T09:53:51;0.00;0.00;0.00
77411;PMS7003;66484;49.968;19.140;2023-08-07T09:56:18;1.00;0.00;0.00
77411;PMS7003;66484;49.968;19.140;2023-08-07T09:58:49;0.00;0.00;0.00
77411;PMS7003;66484;49.968;19.140;2023-08-07T10:01:16;0.00;0.00;0.00
77411;PMS7003;66484;49.968;19.140;2023-08-07T10:03:44;0.00;0.00;0.00
77411;PMS7003;66484;49.968;19.140;2023-08-07T10:06:11;0.00;0.00;0.00
77411;PMS7003;66484;49.968;19.140;2023-08-07T10:08:39;0.00;0.00;0.00
77411;PMS7003;66484;49.968;19.140;2023-08-07T10:11:07;0.00;0.00;0.00
77411;PMS7003;66484;49.968;19.140;2023-08-07T10:13:36;0.00;0.00;0.00
77411;PMS7003;66484;49.968;19.140;2023-08-07T10:16:05;0.00;0.00;0.00
77411;PMS7003;66484;49.968;19.140;2023-08-07T10:18:33;0.00;0.00;0.00
77411;PMS7003;66484;49.968;19.140;2023-08-07T10:21:01;0.00;0.00;0.00
77411;PMS7003;66484;49.968;19.140;2023-08-07T10:23:29;0.00;0.00;0.00
77411;PMS7003;66484;49.968;19.140;2023-08-07T10:25:56;0.00;0.00;0.00
77411;PMS7003;66484;49.968;19.140;2023-08-07T10:28:24;0.00;0.00;0.00
77411;PMS7003;66484;49.968;19.140;2023-08-07T10:30:55;0.00;0.00;0.00
77411;PMS7003;66484;49.968;19.140;2023-08-07T10:33:23;0.00;0.00;0.00
77411;PMS7003;66484;49.968;19.140;2023-08-07T10:35:51;0.00;0.00;0.00
77411;PMS7003;66484;49.968;19.140;2023-08-07T10:38:19;2.75;0.75;0.00
77411;PMS7003;66484;49.968;19.140;2023-08-07T10:40:59;0.00;0.00;0.00
77411;PMS7003;66484;49.968;19.140;2023-08-07T10:43:27;1.00;1.00;0.00
77411;PMS7003;66484;49.968;19.140;2023-08-07T10:46:05;0.00;0.00;0.00
77411;PMS7003;66484;49.968;19.140;2023-08-07T10:48:39;0.75;0.75;0.75
77411;PMS7003;66484;49.968;19.140;2023-08-07T10:51:06;2.00;2.00;1.00
77411;PMS7003;66484;49.968;19.140;2023-08-07T10:53:41;0.00;0.00;0.00
77411;PMS7003;66484;49.968;19.140;2023-08-07T10:56:11;1.00;0.25;0.00
77411;PMS7003;66484;49.968;19.140;2023-08-07T10:58:42;0.00;0.00;0.00
77411;PMS7003;66484;49.968;19.140;2023-08-07T11:03:58;0.00;0.00;0.00
77411;PMS7003;66484;49.968;19.140;2023-08-07T11:06:30;0.25;0.25;0.25
77411;PMS7003;66484;49.968;19.140;2023-08-07T11:08:59;0.00;0.00;0.00
77411;PMS7003;66484;49.968;19.140;2023-08-07T11:11:26;0.00;0.00;0.00
77411;PMS7003;66484;49.968;19.140;2023-08-07T11:13:54;0.00;0.00;0.00
77411;PMS7003;66484;49.968;19.140;2023-08-07T11:16:22;0.00;0.00;0.00
77411;PMS7003;66484;49.968;19.140;2023-08-07T11:18:50;0.75;0.00;0.00
77411;PMS7003;66484;49.968;19.140;2023-08-07T11:21:18;0.00;0.00;0.00
77411;PMS7003;66484;49.968;19.140;2023-08-07T11:23:46;0.00;0.00;0.00
77411;PMS7003;66484;49.968;19.140;2023-08-07T11:26:15;0.00;0.00;0.00
77411;PMS7003;66484;49.968;19.140;2023-08-07T11:28:42;0.00;0.00;0.00
77411;PMS7003;66484;49.968;19.140;2023-08-07T11:31:10;0.50;0.00;0.00
77411;PMS7003;66484;49.968;19.140;2023-08-07T11:33:37;0.00;0.00;0.00
77411;PMS7003;66484;49.968;19.140;2023-08-07T11:36:09;0.00;0.00;0.00
77411;PMS7003;66484;49.968;19.140;2023-08-07T11:38:38;0.00;0.00;0.00
77411;PMS7003;66484;49.968;19.140;2023-08-07T11:41:06;0.50;0.50;0.00
77411;PMS7003;66484;49.968;19.140;2023-08-07T11:43:34;0.00;0.00;0.00
77411;PMS7003;66484;49.968;19.140;2023-08-07T11:46:05;0.50;0.50;0.00
77411;PMS7003;66484;49.968;19.140;2023-08-07T11:48:36;1.00;1.00;0.00
77411;PMS7003;66484;49.968;19.140;2023-08-07T11:51:04;0.00;0.00;0.00
77411;PMS7003;66484;49.968;19.140;2023-08-07T11:53:33;0.75;0.75;0.75
77411;PMS7003;66484;49.968;19.140;2023-08-07T11:56:01;0.75;0.75;0.00
77411;PMS7003;66484;49.968;19.140;2023-08-07T11:58:33;1.00;0.00;0.00
77411;PMS7003;66484;49.968;19.140;2023-08-07T12:01:04;0.50;0.50;0.00
77411;PMS7003;66484;49.968;19.140;2023-08-07T12:03:32;1.25;1.25;1.00
77411;PMS7003;66484;49.968;19.140;2023-08-07T12:06:04;0.50;0.50;0.50
77411;PMS7003;66484;49.968;19.140;2023-08-07T12:08:40;0.00;0.00;0.00
77411;PMS7003;66484;49.968;19.140;2023-08-07T12:11:08;1.75;1.75;1.00
77411;PMS7003;66484;49.968;19.140;2023-08-07T12:14:36;2.00;1.25;1.00
77411;PMS7003;66484;49.968;19.140;2023-08-07T12:17:04;2.50;1.50;0.50
77411;PMS7003;66484;49.968;19.140;2023-08-07T12:19:41;1.00;1.00;1.00
77411;PMS7003;66484;49.968;19.140;2023-08-07T12:22:10;1.00;1.00;1.00
77411;PMS7003;66484;49.968;19.140;2023-08-07T12:24:41;1.50;1.00;1.00
77411;PMS7003;66484;49.968;19.140;2023-08-07T12:27:09;2.00;2.00;1.75
77411;PMS7003;66484;49.968;19.140;2023-08-07T12:29:36;3.75;3.75;3.00
77411;PMS7003;66484;49.968;19.140;2023-08-07T12:32:04;2.25;2.25;2.25
77411;PMS7003;66484;49.968;19.140;2023-08-07T12:34:31;3.00;1.50;1.50
77411;PMS7003;66484;49.968;19.140;2023-08-07T12:37:02;1.00;1.00;0.75
77411;PMS7003;66484;49.968;19.140;2023-08-07T12:39:29;1.25;1.00;1.00
77411;PMS7003;66484;49.968;19.140;2023-08-07T12:41:59;1.75;1.00;0.50
77411;PMS7003;66484;49.968;19.140;2023-08-07T12:44:29;2.75;2.00;1.00
77411;PMS7003;66484;49.968;19.140;2023-08-07T12:46:57;1.00;1.00;0.75
77411;PMS7003;66484;49.968;19.140;2023-08-07T12:49:25;3.00;3.00;3.00
77411;PMS7003;66484;49.968;19.140;2023-08-07T12:51:53;2.00;2.00;1.00
77411;PMS7003;66484;49.968;19.140;2023-08-07T12:54:21;6.00;2.50;1.00
77411;PMS7003;66484;49.968;19.140;2023-08-07T12:56:49;2.00;2.00;1.25
77411;PMS7003;66484;49.968;19.140;2023-08-07T12:59:16;1.00;1.00;0.50
77411;PMS7003;66484;49.968;19.140;2023-08-07T13:01:43;2.00;1.00;1.00
77411;PMS7003;66484;49.968;19.140;2023-08-07T13:04:10;2.25;2.25;1.75
77411;PMS7003;66484;49.968;19.140;2023-08-07T13:06:39;1.50;1.50;1.00
77411;PMS7003;66484;49.968;19.140;2023-08-07T13:09:06;3.50;2.25;1.00
77411;PMS7003;66484;49.968;19.140;2023-08-07T13:11:34;2.00;2.00;1.75
77411;PMS7003;66484;49.968;19.140;2023-08-07T13:14:01;2.00;2.00;1.00
77411;PMS7003;66484;49.968;19.140;2023-08-07T13:16:29;4.00;3.50;2.00
77411;PMS7003;66484;49.968;19.140;2023-08-07T13:18:56;1.50;1.50;1.00
77411;PMS7003;66484;49.968;19.140;2023-08-07T13:21:23;2.00;2.00;1.00
77411;PMS7003;66484;49.968;19.140;2023-08-07T13:23:50;1.00;1.00;1.00
77411;PMS7003;66484;49.968;19.140;2023-08-07T13:26:18;1.00;1.00;1.00
77411;PMS7003;66484;49.968;19.140;2023-08-07T13:28:45;1.00;1.00;1.00
77411;PMS7003;66484;49.968;19.140;2023-08-07T13:31:12;2.00;0.25;0.00
77411;PMS7003;66484;49.968;19.140;2023-08-07T13:33:40;4.75;3.00;2.00
77411;PMS7003;66484;49.968;19.140;2023-08-07T13:36:07;0.00;0.00;0.00
77411;PMS7003;66484;49.968;19.140;2023-08-07T13:38:34;0.75;0.75;0.75
77411;PMS7003;66484;49.968;19.140;2023-08-07T13:41:01;2.00;2.00;1.00
77411;PMS7003;66484;49.968;19.140;2023-08-07T13:43:28;3.00;2.25;2.00
77411;PMS7003;66484;49.968;19.140;2023-08-07T13:45:56;1.75;1.75;1.00
77411;PMS7003;66484;49.968;19.140;2023-08-07T13:48:23;2.75;1.75;1.00
77411;PMS7003;66484;49.968;19.140;2023-08-07T13:50:54;4.00;2.50;1.75
77411;PMS7003;66484;49.968;19.140;2023-08-07T13:53:21;1.50;1.00;1.00
77411;PMS7003;66484;49.968;19.140;2023-08-07T13:55:51;3.75;3.75;2.50
77411;PMS7003;66484;49.968;19.140;2023-08-07T13:58:18;4.00;4.00;3.00
77411;PMS7003;66484;49.968;19.140;2023-08-07T14:00:45;6.00;2.00;1.50
77411;PMS7003;66484;49.968;19.140;2023-08-07T14:03:12;1.75;1.50;1.25
77411;PMS7003;66484;49.968;19.140;2023-08-07T14:05:40;2.00;2.00;2.00
77411;PMS7003;66484;49.968;19.140;2023-08-07T14:08:07;2.75;1.50;0.75
77411;PMS7003;66484;49.968;19.140;2023-08-07T14:10:38;3.50;2.00;2.00
77411;PMS7003;66484;49.968;19.140;2023-08-07T14:13:08;3.00;3.00;2.00
77411;PMS7003;66484;49.968;19.140;2023-08-07T14:15:36;3.75;2.75;2.75
77411;PMS7003;66484;49.968;19.140;2023-08-07T14:18:04;3.50;2.25;1.00
77411;PMS7003;66484;49.968;19.140;2023-08-07T14:20:31;2.00;1.25;1.00